createdAt,value
2022-09-06T00:00:32.800Z,940.46
2022-09-06T00:01:33.698Z,940.48
2022-09-06T00:02:34.631Z,940.5
2022-09-06T00:03:35.354Z,940.49
2022-09-06T00:04:36.088Z,940.48
2022-09-06T00:05:37.075Z,940.51
2022-09-06T00:06:37.573Z,940.5
2022-09-06T00:07:38.483Z,940.47
2022-09-06T00:08:38.687Z,940.46
2022-09-06T00:09:39.310Z,940.45
2022-09-06T00:10:39.663Z,940.42
2022-09-06T00:11:40.475Z,940.45
2022-09-06T00:12:41.483Z,940.37
2022-09-06T00:13:41.689Z,940.4
2022-09-06T00:14:42.189Z,940.38
2022-09-06T00:15:43.154Z,940.37
2022-09-06T00:16:43.420Z,940.37
2022-09-06T00:17:43.916Z,940.36
2022-09-06T00:18:44.844Z,940.32
2022-09-06T00:19:45.067Z,940.36
2022-09-06T00:20:45.973Z,940.34
2022-09-06T00:21:46.471Z,940.34
2022-09-06T00:22:46.603Z,940.37
2022-09-06T00:23:46.822Z,940.33
2022-09-06T00:24:47.445Z,940.34
2022-09-06T00:25:47.641Z,940.34
2022-09-06T00:26:48.140Z,940.34
2022-09-06T00:27:49.039Z,940.33
2022-09-06T00:28:49.979Z,940.31
2022-09-06T00:29:50.478Z,940.31
2022-09-06T00:30:51.146Z,940.28
2022-09-06T00:31:51.755Z,940.28
2022-09-06T00:32:52.065Z,940.34
2022-09-06T00:33:52.264Z,940.37
2022-09-06T00:34:53.184Z,940.33
2022-09-06T00:35:54.129Z,940.35
2022-09-06T00:36:54.452Z,940.35
2022-09-06T00:37:54.651Z,940.36
2022-09-06T00:38:54.857Z,940.39
2022-09-06T00:39:55.537Z,940.36
2022-09-06T00:40:56.350Z,940.36
2022-09-06T00:41:56.548Z,940.36
2022-09-06T00:42:56.961Z,940.37
2022-09-06T00:43:57.906Z,940.34
2022-09-06T00:44:58.551Z,940.33
2022-09-06T00:45:59.224Z,940.35
2022-09-06T00:46:59.790Z,940.33
2022-09-06T00:48:00.702Z,940.36
2022-09-06T00:49:01.621Z,940.3
2022-09-06T00:50:01.855Z,940.32
2022-09-06T00:51:02.494Z,940.3
2022-09-06T00:52:03.438Z,940.3
2022-09-06T00:53:04.467Z,940.32
2022-09-06T00:54:05.390Z,940.31
2022-09-06T00:55:06.348Z,940.32
2022-09-06T00:56:06.556Z,940.34
2022-09-06T00:57:06.880Z,940.3
2022-09-06T00:58:07.500Z,940.28
2022-09-06T00:59:08.424Z,940.32
2022-09-06T01:00:08.647Z,940.29
2022-09-06T01:01:09.219Z,940.31
2022-09-06T01:02:10.058Z,940.32
2022-09-06T01:03:11.018Z,940.29
2022-09-06T01:04:11.522Z,940.27
2022-09-06T01:05:12.425Z,940.28
2022-09-06T01:06:12.919Z,940.25
2022-09-06T01:07:13.509Z,940.31
2022-09-06T01:08:13.724Z,940.27
2022-09-06T01:09:14.802Z,940.26
2022-09-06T01:10:15.297Z,940.27
2022-09-06T01:11:15.902Z,940.26
2022-09-06T01:12:16.541Z,940.27
2022-09-06T01:13:17.284Z,940.28
2022-09-06T01:14:18.202Z,940.28
2022-09-06T01:15:19.118Z,940.23
2022-09-06T01:16:19.786Z,940.22
2022-09-06T01:17:20.436Z,940.27
2022-09-06T01:18:20.718Z,940.26
2022-09-06T01:19:21.138Z,940.23
2022-09-06T01:20:21.336Z,940.29
2022-09-06T01:21:21.834Z,940.28
2022-09-06T01:22:22.447Z,940.23
2022-09-06T01:23:23.449Z,940.27
2022-09-06T01:24:23.939Z,940.26
2022-09-06T01:25:24.140Z,940.25
2022-09-06T01:26:24.786Z,940.26
2022-09-06T01:27:24.985Z,940.25
2022-09-06T01:28:25.217Z,940.27
2022-09-06T01:29:25.342Z,940.3
2022-09-06T01:30:25.562Z,940.31
2022-09-06T01:31:26.319Z,940.26
2022-09-06T01:32:27.260Z,940.3
2022-09-06T01:33:27.546Z,940.27
2022-09-06T01:34:28.468Z,940.29
2022-09-06T01:35:29.375Z,940.29
2022-09-06T01:36:30.296Z,940.28
2022-09-06T01:37:30.591Z,940.3
2022-09-06T01:38:31.479Z,940.31
2022-09-06T01:39:31.743Z,940.4
2022-09-06T01:40:32.621Z,940.33
2022-09-06T01:41:33.521Z,940.36
2022-09-06T01:42:34.438Z,940.35
2022-09-06T01:43:35.151Z,940.34
2022-09-06T01:44:36.051Z,940.35
2022-09-06T01:45:36.950Z,940.37
2022-09-06T01:46:37.889Z,940.34
2022-09-06T01:47:38.812Z,940.34
2022-09-06T01:48:39.033Z,940.34
2022-09-06T01:49:39.356Z,940.36
2022-09-06T01:50:40.279Z,940.38
2022-09-06T01:51:41.196Z,940.39
2022-09-06T01:52:41.814Z,940.37
2022-09-06T01:53:42.516Z,940.36
2022-09-06T01:54:42.716Z,940.33
2022-09-06T01:55:43.338Z,940.32
2022-09-06T01:56:44.255Z,940.35
2022-09-06T01:57:45.188Z,940.37
2022-09-06T01:58:45.382Z,940.35
2022-09-06T01:59:46.275Z,940.35
2022-09-06T02:00:47.221Z,940.37
2022-09-06T02:01:47.589Z,940.36
2022-09-06T02:02:47.893Z,940.4
2022-09-06T02:03:48.769Z,940.38
2022-09-06T02:04:49.267Z,940.34
2022-09-06T02:05:49.906Z,940.36
2022-09-06T02:06:50.802Z,940.4
2022-09-06T02:07:51.102Z,940.41
2022-09-06T02:08:51.720Z,940.4
2022-09-06T02:09:52.216Z,940.38
2022-09-06T02:10:52.558Z,940.36
2022-09-06T02:11:53.480Z,940.36
2022-09-06T02:12:54.429Z,940.4
2022-09-06T02:13:55.429Z,940.39
2022-09-06T02:14:55.926Z,940.37
2022-09-06T02:15:56.843Z,940.4
2022-09-06T02:16:57.453Z,940.36
2022-09-06T02:17:57.684Z,940.39
2022-09-06T02:18:58.581Z,940.37
2022-09-06T02:19:59.078Z,940.32
2022-09-06T02:20:59.980Z,940.35
2022-09-06T02:22:00.879Z,940.39
2022-09-06T02:23:01.799Z,940.35
2022-09-06T02:24:02.108Z,940.32
2022-09-06T02:25:02.606Z,940.32
2022-09-06T02:26:03.527Z,940.31
2022-09-06T02:27:04.155Z,940.32
2022-09-06T02:28:05.056Z,940.31
2022-09-06T02:29:05.293Z,940.33
2022-09-06T02:30:05.506Z,940.34
2022-09-06T02:31:05.813Z,940.35
2022-09-06T02:32:06.175Z,940.31
2022-09-06T02:33:06.393Z,940.3
2022-09-06T02:34:06.679Z,940.33
2022-09-06T02:35:07.015Z,940.31
2022-09-06T02:36:07.928Z,940.34
2022-09-06T02:37:08.834Z,940.38
2022-09-06T02:38:09.069Z,940.35
2022-09-06T02:39:09.447Z,940.38
2022-09-06T02:40:10.275Z,940.39
2022-09-06T02:41:10.936Z,940.37
2022-09-06T02:42:11.158Z,940.43
2022-09-06T02:43:11.357Z,940.42
2022-09-06T02:44:11.660Z,940.4
2022-09-06T02:45:11.857Z,940.41
2022-09-06T02:46:12.106Z,940.39
2022-09-06T02:47:12.454Z,940.39
2022-09-06T02:48:13.072Z,940.35
2022-09-06T02:49:13.967Z,940.35
2022-09-06T02:50:14.459Z,940.4
2022-09-06T02:51:15.353Z,940.37
2022-09-06T02:52:15.564Z,940.36
2022-09-06T02:53:16.182Z,940.41
2022-09-06T02:54:16.313Z,940.41
2022-09-06T02:55:16.532Z,940.45
2022-09-06T02:56:17.577Z,940.42
2022-09-06T02:57:18.207Z,940.42
2022-09-06T02:58:19.108Z,940.42
2022-09-06T02:59:20.181Z,940.45
2022-09-06T03:00:21.100Z,940.43
2022-09-06T03:01:21.321Z,940.45
2022-09-06T03:02:22.351Z,940.4
2022-09-06T03:03:22.662Z,940.41
2022-09-06T03:04:23.712Z,940.43
2022-09-06T03:05:23.904Z,940.46
2022-09-06T03:06:24.398Z,940.45
2022-09-06T03:07:25.055Z,940.47
2022-09-06T03:08:25.546Z,940.4
2022-09-06T03:09:25.783Z,940.44
2022-09-06T03:10:26.429Z,940.42
2022-09-06T03:11:27.349Z,940.4
2022-09-06T03:12:27.704Z,940.41
2022-09-06T03:13:28.347Z,940.43
2022-09-06T03:14:29.332Z,940.37
2022-09-06T03:15:29.525Z,940.43
2022-09-06T03:16:30.521Z,940.4
2022-09-06T03:17:30.733Z,940.36
2022-09-06T03:18:31.357Z,940.36
2022-09-06T03:19:32.259Z,940.35
2022-09-06T03:20:36.928Z,940.36
2022-09-06T03:21:33.296Z,940.34
2022-09-06T03:22:34.193Z,940.34
2022-09-06T03:23:34.387Z,940.37
2022-09-06T03:24:35.097Z,940.37
2022-09-06T03:25:35.296Z,940.35
2022-09-06T03:26:36.217Z,940.36
2022-09-06T03:27:37.161Z,940.35
2022-09-06T03:28:37.655Z,940.33
2022-09-06T03:29:38.573Z,940.33
2022-09-06T03:30:39.497Z,940.35
2022-09-06T03:31:39.731Z,940.36
2022-09-06T03:32:40.671Z,940.38
2022-09-06T03:33:41.441Z,940.35
2022-09-06T03:34:41.723Z,940.36
2022-09-06T03:35:42.318Z,940.37
2022-09-06T03:36:42.534Z,940.36
2022-09-06T03:37:43.453Z,940.36
2022-09-06T03:38:43.778Z,940.38
2022-09-06T03:39:44.318Z,940.35
2022-09-06T03:40:44.586Z,940.36
2022-09-06T03:41:45.511Z,940.38
2022-09-06T03:42:45.723Z,940.4
2022-09-06T03:43:46.368Z,940.31
2022-09-06T03:44:47.102Z,940.34
2022-09-06T03:45:47.348Z,940.34
2022-09-06T03:46:47.930Z,940.36
2022-09-06T03:47:48.850Z,940.33
2022-09-06T03:48:49.472Z,940.35
2022-09-06T03:49:49.669Z,940.41
2022-09-06T03:50:49.868Z,940.38
2022-09-06T03:51:50.369Z,940.34
2022-09-06T03:52:51.287Z,940.42
2022-09-06T03:53:51.630Z,940.39
2022-09-06T03:54:51.924Z,940.41
2022-09-06T03:55:52.541Z,940.38
2022-09-06T03:56:53.179Z,940.34
2022-09-06T03:57:53.526Z,940.33
2022-09-06T03:58:54.015Z,940.34
2022-09-06T03:59:54.641Z,940.32
2022-09-06T04:00:54.888Z,940.31
2022-09-06T04:01:55.301Z,940.3
2022-09-06T04:02:59.728Z,940.31
2022-09-06T04:03:56.628Z,940.27
2022-09-06T04:04:57.061Z,940.24
2022-09-06T04:05:58.006Z,940.29
2022-09-06T04:06:58.219Z,940.24
2022-09-06T04:07:59.124Z,940.2
2022-09-06T04:08:59.739Z,940.22
2022-09-06T04:10:00.648Z,940.19
2022-09-06T04:11:01.567Z,940.17
2022-09-06T04:12:02.203Z,940.22
2022-09-06T04:13:02.715Z,940.2
2022-09-06T04:14:03.344Z,940.19
2022-09-06T04:15:03.774Z,940.17
2022-09-06T04:16:04.396Z,940.13
2022-09-06T04:17:05.344Z,940.15
2022-09-06T04:18:09.078Z,940.19
2022-09-06T04:19:06.025Z,940.15
2022-09-06T04:20:06.920Z,940.18
2022-09-06T04:21:07.540Z,940.19
2022-09-06T04:22:07.741Z,940.21
2022-09-06T04:23:07.961Z,940.24
2022-09-06T04:24:08.579Z,940.25
2022-09-06T04:25:08.866Z,940.28
2022-09-06T04:26:09.484Z,940.25
2022-09-06T04:27:09.696Z,940.27
2022-09-06T04:28:10.636Z,940.27
2022-09-06T04:29:11.065Z,940.29
2022-09-06T04:30:11.282Z,940.22
2022-09-06T04:31:12.204Z,940.28
2022-09-06T04:32:13.047Z,940.26
2022-09-06T04:33:13.963Z,940.31
2022-09-06T04:34:14.585Z,940.28
2022-09-06T04:35:14.865Z,940.26
2022-09-06T04:36:15.192Z,940.26
2022-09-06T04:37:15.430Z,940.21
2022-09-06T04:38:16.080Z,940.25
2022-09-06T04:39:16.336Z,940.21
2022-09-06T04:40:16.657Z,940.27
2022-09-06T04:41:16.874Z,940.26
2022-09-06T04:42:17.818Z,940.27
2022-09-06T04:43:18.022Z,940.29
2022-09-06T04:44:18.922Z,940.28
2022-09-06T04:45:19.633Z,940.34
2022-09-06T04:46:19.957Z,940.29
2022-09-06T04:47:20.248Z,940.29
2022-09-06T04:48:20.448Z,940.28
2022-09-06T04:49:21.187Z,940.28
2022-09-06T04:50:21.679Z,940.28
2022-09-06T04:51:22.175Z,940.26
2022-09-06T04:52:24.286Z,940.27
2022-09-06T04:53:23.398Z,940.31
2022-09-06T04:54:23.731Z,940.25
2022-09-06T04:55:24.742Z,940.26
2022-09-06T04:56:25.239Z,940.23
2022-09-06T04:57:26.159Z,940.25
2022-09-06T04:58:26.865Z,940.2
2022-09-06T04:59:27.368Z,940.24
2022-09-06T05:00:27.567Z,940.22
2022-09-06T05:01:28.347Z,940.24
2022-09-06T05:02:28.779Z,940.24
2022-09-06T05:03:29.465Z,940.19
2022-09-06T05:04:29.672Z,940.19
2022-09-06T05:05:30.670Z,940.18
2022-09-06T05:06:31.023Z,940.19
2022-09-06T05:07:31.942Z,940.19
2022-09-06T05:08:33.002Z,940.19
2022-09-06T05:09:33.823Z,940.19
2022-09-06T05:10:34.312Z,940.19
2022-09-06T05:11:35.213Z,940.25
2022-09-06T05:12:35.434Z,940.37
2022-09-06T05:13:35.998Z,940.39
2022-09-06T05:14:36.922Z,940.57
2022-09-06T05:15:37.077Z,940.97
2022-09-06T05:16:37.310Z,941.13
2022-09-06T05:17:38.292Z,941.18
2022-09-06T05:18:39.209Z,941.32
2022-09-06T05:19:39.422Z,941.38
2022-09-06T05:20:40.405Z,941.42
2022-09-06T05:21:40.597Z,941.49
2022-09-06T05:22:41.223Z,941.54
2022-09-06T05:23:42.145Z,941.56
2022-09-06T05:24:43.000Z,941.57
2022-09-06T05:25:43.300Z,941.59
2022-09-06T05:26:43.493Z,941.56
2022-09-06T05:27:44.112Z,941.6
2022-09-06T05:28:45.036Z,941.59
2022-09-06T05:29:45.681Z,941.6
2022-09-06T05:30:46.179Z,941.57
2022-09-06T05:31:47.166Z,941.54
2022-09-06T05:32:47.710Z,941.49
2022-09-06T05:33:48.338Z,941.55
2022-09-06T05:34:49.256Z,941.59
2022-09-06T05:35:50.303Z,941.54
2022-09-06T05:36:51.294Z,941.54
2022-09-06T05:37:52.219Z,941.57
2022-09-06T05:38:52.412Z,941.58
2022-09-06T05:39:53.439Z,941.61
2022-09-06T05:40:53.986Z,941.57
2022-09-06T05:41:54.181Z,941.58
2022-09-06T05:42:54.370Z,941.6
2022-09-06T05:43:55.275Z,941.63
2022-09-06T05:44:55.879Z,941.62
2022-09-06T05:45:56.054Z,941.7
2022-09-06T05:46:56.849Z,941.7
2022-09-06T05:47:57.471Z,941.65
2022-09-06T05:48:58.384Z,941.65
2022-09-06T05:49:58.585Z,941.64
2022-09-06T05:50:59.227Z,941.6
2022-09-06T05:51:59.446Z,941.59
2022-09-06T05:52:59.943Z,941.59
2022-09-06T05:54:00.440Z,941.56
2022-09-06T05:55:00.936Z,941.63
2022-09-06T05:56:01.938Z,941.56
2022-09-06T05:57:02.138Z,941.56
2022-09-06T05:58:02.342Z,941.53
2022-09-06T05:59:02.669Z,941.5
2022-09-06T06:00:03.591Z,941.5
2022-09-06T06:01:04.535Z,941.53
2022-09-06T06:02:07.292Z,941.51
2022-09-06T06:03:06.200Z,941.5
2022-09-06T06:04:07.125Z,941.45
2022-09-06T06:05:07.347Z,941.52
2022-09-06T06:06:07.637Z,941.49
2022-09-06T06:07:07.979Z,941.52
2022-09-06T06:08:08.173Z,941.51
2022-09-06T06:09:08.665Z,941.52
2022-09-06T06:10:09.266Z,941.52
2022-09-06T06:11:09.458Z,941.51
2022-09-06T06:12:10.103Z,941.49
2022-09-06T06:13:10.344Z,941.5
2022-09-06T06:14:11.242Z,941.46
2022-09-06T06:15:12.187Z,941.48
2022-09-06T06:16:13.239Z,941.47
2022-09-06T06:17:13.471Z,941.48
2022-09-06T06:18:13.965Z,941.45
2022-09-06T06:19:14.489Z,941.43
2022-09-06T06:20:15.387Z,941.43
2022-09-06T06:21:16.013Z,941.44
2022-09-06T06:22:16.205Z,941.47
2022-09-06T06:23:16.707Z,941.42
2022-09-06T06:24:17.626Z,941.45
2022-09-06T06:25:18.114Z,941.45
2022-09-06T06:26:18.560Z,941.53
2022-09-06T06:27:18.903Z,941.53
2022-09-06T06:28:19.801Z,941.57
2022-09-06T06:29:20.475Z,941.59
2022-09-06T06:30:21.101Z,941.6
2022-09-06T06:31:21.457Z,941.6
2022-09-06T06:32:21.770Z,941.63
2022-09-06T06:33:22.668Z,941.63
2022-09-06T06:34:23.593Z,941.65
2022-09-06T06:35:24.519Z,941.63
2022-09-06T06:36:25.182Z,941.6
2022-09-06T06:37:25.856Z,941.61
2022-09-06T06:38:26.125Z,941.61
2022-09-06T06:39:27.149Z,941.64
2022-09-06T06:40:27.462Z,941.63
2022-09-06T06:41:27.687Z,941.67
2022-09-06T06:42:28.590Z,941.66
2022-09-06T06:43:29.217Z,941.72
2022-09-06T06:44:30.126Z,941.72
2022-09-06T06:45:31.051Z,941.67
2022-09-06T06:46:31.999Z,941.62
2022-09-06T06:47:32.623Z,941.61
2022-09-06T06:48:32.833Z,941.61
2022-09-06T06:49:33.323Z,941.64
2022-09-06T06:50:33.972Z,941.61
2022-09-06T06:51:34.171Z,941.63
2022-09-06T06:52:34.798Z,941.66
2022-09-06T06:53:34.999Z,941.68
2022-09-06T06:54:35.219Z,941.64
2022-09-06T06:55:36.142Z,941.64
2022-09-06T06:56:37.163Z,941.67
2022-09-06T06:57:37.392Z,941.66
2022-09-06T06:58:38.290Z,941.63
2022-09-06T06:59:38.518Z,941.65
2022-09-06T07:00:39.463Z,941.73
2022-09-06T07:01:39.988Z,941.75
2022-09-06T07:02:40.336Z,941.75
2022-09-06T07:03:41.270Z,941.73
2022-09-06T07:04:42.254Z,941.69
2022-09-06T07:08:07.208Z,941.63
2022-09-06T07:09:08.146Z,941.69
2022-09-06T07:11:09.146Z,941.75
2022-09-06T07:12:10.114Z,941.67
2022-09-06T07:13:10.316Z,941.61
2022-09-06T07:14:10.461Z,941.62
2022-09-06T07:15:10.675Z,941.56
2022-09-06T07:16:10.930Z,941.53
2022-09-06T07:17:11.111Z,941.53
2022-09-06T07:18:11.831Z,941.55
2022-09-06T07:20:28.025Z,941.55
2022-09-06T07:21:46.066Z,941.61
2022-09-06T07:22:46.459Z,941.63
2022-09-06T07:24:10.388Z,941.69
2022-09-06T07:25:10.073Z,941.76
2022-09-06T07:26:10.497Z,941.85
2022-09-06T07:28:11.354Z,941.91
2022-09-06T07:29:11.556Z,941.94
2022-09-06T07:30:12.050Z,942.01
2022-09-06T07:32:25.385Z,942.02
2022-09-06T07:33:26.026Z,942.04
2022-09-06T07:34:26.587Z,942.04
2022-09-06T07:35:26.789Z,941.99
2022-09-06T07:36:27.429Z,941.94
2022-09-06T07:37:28.072Z,941.92
2022-09-06T07:38:28.989Z,941.92
2022-09-06T07:39:29.504Z,941.81
2022-09-06T07:40:29.908Z,941.81
2022-09-06T07:41:30.400Z,941.74
2022-09-06T07:42:34.101Z,941.73
2022-09-06T07:43:30.829Z,941.69
2022-09-06T07:44:31.052Z,941.65
2022-09-06T07:45:31.247Z,941.74
2022-09-06T07:46:31.660Z,941.6
2022-09-06T07:48:01.536Z,941.66
2022-09-06T07:48:32.757Z,941.67
2022-09-06T07:49:34.311Z,941.62
2022-09-06T07:50:51.202Z,941.61
2022-09-06T07:51:51.285Z,941.68
2022-09-06T07:53:21.847Z,941.68
2022-09-06T07:54:32.030Z,941.72
2022-09-06T07:55:17.552Z,941.72
2022-09-06T07:56:17.773Z,941.68
2022-09-06T07:57:18.696Z,941.66
2022-09-06T07:58:19.623Z,941.75
2022-09-06T07:59:20.123Z,941.67
2022-09-06T08:00:21.165Z,941.68
2022-09-06T08:01:21.909Z,941.7
2022-09-06T08:02:22.633Z,941.68
2022-09-06T08:03:23.227Z,941.71
2022-09-06T08:04:23.546Z,941.74
2022-09-06T08:06:26.745Z,941.71
2022-09-06T08:07:47.452Z,941.74
2022-09-06T08:09:10.179Z,941.7
2022-09-06T08:10:10.676Z,941.76
2022-09-06T08:11:10.983Z,941.79
2022-09-06T08:12:11.884Z,941.77
2022-09-06T08:13:12.583Z,941.8
2022-09-06T08:15:13.462Z,941.82
2022-09-06T08:16:14.416Z,941.85
2022-09-06T08:17:15.092Z,941.83
2022-09-06T08:18:15.721Z,941.83
2022-09-06T08:19:16.073Z,941.83
2022-09-06T08:20:16.673Z,941.81
2022-09-06T08:21:17.415Z,941.89
2022-09-06T08:22:17.618Z,941.86
2022-09-06T08:23:17.845Z,941.87
2022-09-06T08:24:18.811Z,941.88
2022-09-06T08:25:19.024Z,941.9
2022-09-06T08:26:19.631Z,941.85
2022-09-06T08:27:20.011Z,941.89
2022-09-06T08:28:20.236Z,941.84
2022-09-06T08:29:21.318Z,941.85
2022-09-06T08:30:21.965Z,941.86
2022-09-06T08:31:22.808Z,941.84
2022-09-06T08:32:23.387Z,941.89
2022-09-06T08:33:23.939Z,941.81
2022-09-06T08:34:24.921Z,941.83
2022-09-06T08:35:25.859Z,941.82
2022-09-06T08:36:26.817Z,941.83
2022-09-06T08:37:27.054Z,941.84
2022-09-06T08:38:27.678Z,941.79
2022-09-06T08:39:28.609Z,941.79
2022-09-06T08:40:28.857Z,941.8
2022-09-06T08:41:29.598Z,941.83
2022-09-06T08:42:29.827Z,941.78
2022-09-06T08:43:30.748Z,941.76
2022-09-06T08:45:01.165Z,941.72
2022-09-06T08:45:31.782Z,941.7
2022-09-06T08:46:32.932Z,941.7
2022-09-06T08:47:33.874Z,941.69
2022-09-06T08:48:34.798Z,941.66
2022-09-06T08:49:35.446Z,941.69
2022-09-06T08:50:36.096Z,941.63
2022-09-06T08:51:38.528Z,941.64
2022-09-06T08:52:39.369Z,941.6
2022-09-06T08:53:37.862Z,941.62
2022-09-06T08:54:38.224Z,941.61
2022-09-06T08:55:39.143Z,941.6
2022-09-06T08:56:39.370Z,941.62
2022-09-06T08:57:40.484Z,941.59
2022-09-06T08:58:40.468Z,941.61
2022-09-06T08:59:40.967Z,941.59
2022-09-06T09:00:41.195Z,941.6
2022-09-06T09:01:41.514Z,941.57
2022-09-06T09:02:42.504Z,941.6
2022-09-06T09:03:42.878Z,941.58
2022-09-06T09:04:43.086Z,941.55
2022-09-06T09:05:44.021Z,941.55
2022-09-06T09:06:44.944Z,941.5
2022-09-06T09:07:45.874Z,941.5
2022-09-06T09:08:46.388Z,941.51
2022-09-06T09:09:46.731Z,941.44
2022-09-06T09:10:47.404Z,941.42
2022-09-06T09:11:47.695Z,941.42
2022-09-06T09:12:47.930Z,941.42
2022-09-06T09:13:48.861Z,941.37
2022-09-06T09:14:49.219Z,941.3
2022-09-06T09:15:49.596Z,941.34
2022-09-06T09:16:50.289Z,941.31
2022-09-06T09:17:51.235Z,941.35
2022-09-06T09:18:51.734Z,941.3
2022-09-06T09:19:52.406Z,941.3
2022-09-06T09:20:53.332Z,941.28
2022-09-06T09:21:53.681Z,941.28
2022-09-06T09:22:53.901Z,941.29
2022-09-06T09:23:54.845Z,941.3
2022-09-06T09:24:55.763Z,941.32
2022-09-06T09:25:56.696Z,941.29
2022-09-06T09:26:56.909Z,941.29
2022-09-06T09:27:57.607Z,941.27
2022-09-06T09:28:58.282Z,941.26
2022-09-06T09:31:02.132Z,941.2
2022-09-06T09:32:02.594Z,941.23
2022-09-06T09:33:02.780Z,941.23
2022-09-06T09:34:03.282Z,941.24
2022-09-06T09:35:04.191Z,941.24
2022-09-06T09:36:04.416Z,941.27
2022-09-06T09:38:12.657Z,941.25
2022-09-06T09:39:13.619Z,941.25
2022-09-06T09:40:14.362Z,941.25
2022-09-06T09:41:15.320Z,941.22
2022-09-06T09:42:15.647Z,941.25
2022-09-06T09:43:16.576Z,941.24
2022-09-06T09:44:17.079Z,941.23
2022-09-06T09:45:17.287Z,941.21
2022-09-06T09:46:17.565Z,941.22
2022-09-06T09:47:17.859Z,941.22
2022-09-06T09:48:18.368Z,941.23
2022-09-06T09:49:18.593Z,941.17
2022-09-06T09:50:19.558Z,941.15
2022-09-06T09:51:25.669Z,941.17
2022-09-06T09:52:20.860Z,941.16
2022-09-06T09:53:21.375Z,941.2
2022-09-06T09:54:21.984Z,941.2
2022-09-06T09:55:22.611Z,941.15
2022-09-06T09:56:22.859Z,941.13
2022-09-06T09:57:23.802Z,941.1
2022-09-06T09:58:24.046Z,941.11
2022-09-06T09:59:24.551Z,941.09
2022-09-06T10:00:25.495Z,941.1
2022-09-06T10:01:26.016Z,941.11
2022-09-06T10:02:26.350Z,941.14
2022-09-06T10:03:26.944Z,941.06
2022-09-06T10:04:46.593Z,941
2022-09-06T10:05:47.540Z,941
2022-09-06T10:07:11.542Z,941.01
2022-09-06T10:08:12.471Z,940.99
2022-09-06T10:09:15.009Z,940.98
2022-09-06T10:10:13.733Z,941.02
2022-09-06T10:11:14.395Z,941.01
2022-09-06T10:12:14.902Z,941.04
2022-09-06T10:13:15.253Z,941.04
2022-09-06T10:14:16.172Z,941.01
2022-09-06T10:15:17.099Z,941.03
2022-09-06T10:16:17.799Z,941.01
2022-09-06T10:17:18.359Z,940.99
2022-09-06T10:18:19.262Z,941
2022-09-06T10:19:20.190Z,941.03
2022-09-06T10:20:21.125Z,941
2022-09-06T10:21:22.055Z,940.92
2022-09-06T10:22:22.566Z,940.94
2022-09-06T10:24:40.245Z,940.89
2022-09-06T10:25:42.149Z,940.85
2022-09-06T10:26:41.105Z,940.89
2022-09-06T10:27:50.355Z,940.85
2022-09-06T10:28:42.329Z,940.83
2022-09-06T10:29:43.325Z,940.81
2022-09-06T10:30:43.681Z,940.82
2022-09-06T10:31:44.391Z,940.86
2022-09-06T10:32:44.938Z,940.82
2022-09-06T10:33:45.269Z,940.87
2022-09-06T10:34:45.634Z,940.83
2022-09-06T10:35:45.878Z,940.83
2022-09-06T10:36:46.101Z,940.87
2022-09-06T10:37:46.851Z,940.87
2022-09-06T10:38:47.773Z,940.87
2022-09-06T10:39:48.332Z,940.82
2022-09-06T10:40:48.878Z,940.84
2022-09-06T10:41:49.528Z,940.89
2022-09-06T10:42:49.734Z,940.83
2022-09-06T10:43:50.078Z,940.88
2022-09-06T10:44:51.006Z,940.83
2022-09-06T10:45:51.512Z,940.81
2022-09-06T10:46:52.673Z,940.85
2022-09-06T10:47:53.557Z,940.8
2022-09-06T10:48:53.901Z,940.81
2022-09-06T10:49:54.868Z,940.81
2022-09-06T10:50:55.871Z,940.77
2022-09-06T10:51:56.782Z,940.76
2022-09-06T10:52:57.436Z,940.77
2022-09-06T10:53:58.070Z,940.75
2022-09-06T10:54:58.423Z,940.77
2022-09-06T10:56:01.304Z,940.8
2022-09-06T10:56:59.665Z,940.75
2022-09-06T10:58:20.671Z,940.77
2022-09-06T10:59:39.441Z,940.81
2022-09-06T11:00:39.795Z,940.79
2022-09-06T11:01:40.054Z,940.79
2022-09-06T11:02:40.599Z,940.77
2022-09-06T11:04:04.577Z,940.82
2022-09-06T11:05:44.749Z,940.75
2022-09-06T11:06:45.413Z,940.71
2022-09-06T11:09:05.256Z,940.77
2022-09-06T11:10:05.888Z,940.77
2022-09-06T11:11:06.404Z,940.75
2022-09-06T11:12:06.980Z,940.77
2022-09-06T11:13:07.930Z,940.79
2022-09-06T11:14:08.559Z,940.72
2022-09-06T11:15:09.515Z,940.73
2022-09-06T11:16:10.075Z,940.68
2022-09-06T11:17:10.826Z,940.73
2022-09-06T11:18:11.479Z,940.74
2022-09-06T11:19:11.941Z,940.79
2022-09-06T11:20:12.892Z,940.74
2022-09-06T11:21:16.293Z,940.7
2022-09-06T11:22:13.455Z,940.67
2022-09-06T11:23:13.691Z,940.69
2022-09-06T11:24:14.779Z,940.7
2022-09-06T11:25:14.997Z,940.68
2022-09-06T11:26:15.271Z,940.69
2022-09-06T11:27:15.508Z,940.68
2022-09-06T11:28:16.433Z,940.7
2022-09-06T11:29:17.365Z,940.72
2022-09-06T11:30:18.006Z,940.7
2022-09-06T11:32:36.068Z,940.67
2022-09-06T11:33:36.296Z,940.69
2022-09-06T11:34:36.512Z,940.64
2022-09-06T11:35:37.452Z,940.63
2022-09-06T11:36:37.589Z,940.64
2022-09-06T11:37:37.822Z,940.63
2022-09-06T11:38:38.775Z,940.62
2022-09-06T11:40:42.042Z,940.58
2022-09-06T11:41:42.965Z,940.59
2022-09-06T11:42:43.205Z,940.63
2022-09-06T11:43:44.143Z,940.6
2022-09-06T11:44:45.083Z,940.58
2022-09-06T11:45:46.022Z,940.52
2022-09-06T11:46:46.544Z,940.52
2022-09-06T11:47:46.707Z,940.51
2022-09-06T11:48:47.215Z,940.55
2022-09-06T11:49:47.455Z,940.52
2022-09-06T11:50:48.413Z,940.49
2022-09-06T11:51:49.023Z,940.47
2022-09-06T11:52:49.952Z,940.49
2022-09-06T11:53:50.589Z,940.5
2022-09-06T11:54:51.501Z,940.45
2022-09-06T11:55:52.134Z,940.45
2022-09-06T11:56:52.835Z,940.44
2022-09-06T11:57:53.810Z,940.44
2022-09-06T11:58:54.430Z,940.43
2022-09-06T11:59:54.664Z,940.41
2022-09-06T12:00:54.919Z,940.42
2022-09-06T12:01:55.897Z,940.44
2022-09-06T12:04:20.988Z,940.37
2022-09-06T12:05:21.905Z,940.36
2022-09-06T12:06:22.534Z,940.36
2022-09-06T12:07:23.312Z,940.31
2022-09-06T12:08:23.943Z,940.28
2022-09-06T12:09:24.436Z,940.27
2022-09-06T12:10:25.403Z,940.29
2022-09-06T12:11:29.080Z,940.28
2022-09-06T12:12:26.851Z,940.27
2022-09-06T12:13:27.491Z,940.29
2022-09-06T12:14:28.430Z,940.3
2022-09-06T12:15:29.078Z,940.3
2022-09-06T12:16:29.266Z,940.29
2022-09-06T12:17:29.609Z,940.26
2022-09-06T12:18:29.963Z,940.27
2022-09-06T12:19:30.326Z,940.3
2022-09-06T12:20:31.147Z,940.3
2022-09-06T12:21:32.086Z,940.3
2022-09-06T12:22:33.024Z,940.29
2022-09-06T12:23:34.028Z,940.28
2022-09-06T12:24:34.245Z,940.29
2022-09-06T12:25:34.862Z,940.28
2022-09-06T12:26:35.774Z,940.25
2022-09-06T12:27:36.539Z,940.29
2022-09-06T12:28:36.784Z,940.26
2022-09-06T12:29:37.705Z,940.24
2022-09-06T12:30:38.372Z,940.25
2022-09-06T12:31:38.844Z,940.28
2022-09-06T12:32:39.093Z,940.3
2022-09-06T12:33:39.737Z,940.3
2022-09-06T12:34:39.944Z,940.31
2022-09-06T12:36:02.258Z,940.28
2022-09-06T12:37:01.765Z,940.28
2022-09-06T12:38:02.799Z,940.33
2022-09-06T12:39:03.733Z,940.26
2022-09-06T12:40:04.816Z,940.28
2022-09-06T12:41:04.966Z,940.24
2022-09-06T12:42:05.895Z,940.24
2022-09-06T12:43:06.835Z,940.2
2022-09-06T12:44:07.076Z,940.18
2022-09-06T12:45:07.710Z,940.14
2022-09-06T12:46:08.203Z,940.17
2022-09-06T12:47:08.466Z,940.13
2022-09-06T12:48:08.903Z,940.09
2022-09-06T12:49:09.841Z,940.11
2022-09-06T12:50:10.262Z,940.09
2022-09-06T12:51:10.774Z,940.09
2022-09-06T12:52:11.796Z,940.1
2022-09-06T12:53:15.743Z,940.15
2022-09-06T12:54:13.012Z,940.16
2022-09-06T12:55:13.957Z,940.1
2022-09-06T12:56:14.883Z,940.07
2022-09-06T12:57:15.110Z,940.08
2022-09-06T12:58:15.530Z,940.04
2022-09-06T12:59:16.500Z,939.98
2022-09-06T13:00:16.739Z,939.98
2022-09-06T13:01:17.733Z,939.93